Huvudsida
METAR-TAF:

METAR-TAF

Flygplatser :

Kharg Island, Iran

latitud: 29-15-34N, longitud: 50-19-24E, höjd: 5 m

Aktuellt väderrapport

Denna rapport gjordes för 8 timmar och 12 minuter sedan, klockan 15:00 UTC
Stilla vind
Temperatur 24°C
Fuktighet 65%
Tryck 1014 hPa
Sikt 10 km eller mer
Få moln på en höjd av 3000 ft, Cumulonimbus.
Spridda moln på en höjd av 4000 ft
Mulet på en höjd av 10000 ft

METAR: OIBQ 151500Z 00000KT 9999 FEW030CB SCT040 OVC100 24/17 Q1014

Tid: 02:42 (23:12 UTC)


TAF: saknas

Aktuella väderrapporter och prognoser från 4000 flygplatser (METAR- och TAF-rapporter).

De tillgängliga stationerna syns som gula och röda prickar på kartan.

För musen över prickarna för att se namnen på stationerna.

Klicka sedan för att få väderrapporter och prognoser.

För att ändra kartan: Klicka på de gröna knapparna med ett svart kors på för att zooma in; den gröna knappen med ett streck på för att zooma ut; eller på de gröna pilarna för angränsande kartor.


METAR-TAF: